Terminal Aerodrome Forecast
Issued by NWS Riverton, WY

Home | Current Version | Previous Version | Text Only | Print | Product List | Glossary On
Versions: 1 2 3 4 5 6 7 8 9 10 11 12
772
FTUS45 KRIW 080528
TAFRIW
TAF
KRIW 080528Z 0806/0906 VRB05KT P6SM BKN080
     FM081400 VRB05KT P6SM SKC
     FM090400 29007KT P6SM SKC=

USA.gov is the U.S. government's official web portal to all federal, state and local government web resources and services.